createdAt,value
2018-09-23T00:00:41.412Z,9.70
2018-09-23T00:01:41.408Z,9.10
2018-09-23T00:02:41.404Z,9.00
2018-09-23T00:03:41.404Z,10.60
2018-09-23T00:04:41.399Z,9.60
2018-09-23T00:05:41.395Z,10.30
2018-09-23T00:06:41.390Z,9.40
2018-09-23T00:07:41.386Z,8.60
2018-09-23T00:08:41.383Z,9.60
2018-09-23T00:09:41.380Z,9.70
2018-09-23T00:10:41.377Z,7.80
2018-09-23T00:11:41.374Z,7.90
2018-09-23T00:12:41.370Z,8.90
2018-09-23T00:13:41.367Z,9.20
2018-09-23T00:14:41.366Z,9.40
2018-09-23T00:15:41.359Z,9.70
2018-09-23T00:16:41.357Z,8.20
2018-09-23T00:17:41.355Z,7.70
2018-09-23T00:18:41.348Z,10.30
2018-09-23T00:19:41.346Z,9.50
2018-09-23T00:20:41.343Z,9.40
2018-09-23T00:21:41.340Z,8.90
2018-09-23T00:22:41.336Z,8.70
2018-09-23T00:23:41.332Z,8.00
2018-09-23T00:24:41.329Z,8.80
2018-09-23T00:25:41.327Z,9.20
2018-09-23T00:26:41.322Z,7.90
2018-09-23T00:27:41.317Z,8.20
2018-09-23T00:28:41.315Z,9.00
2018-09-23T00:29:41.313Z,7.80
2018-09-23T00:30:41.308Z,8.70
2018-09-23T00:31:41.304Z,9.90
2018-09-23T00:32:41.302Z,8.00
2018-09-23T00:33:41.300Z,8.10
2018-09-23T00:34:41.294Z,8.40
2018-09-23T00:35:41.292Z,7.40
2018-09-23T00:36:41.287Z,8.20
2018-09-23T00:37:41.285Z,7.80
2018-09-23T00:38:41.281Z,8.00
2018-09-23T00:39:41.277Z,7.60
2018-09-23T00:40:41.275Z,8.10
2018-09-23T00:41:41.272Z,7.20
2018-09-23T00:42:41.266Z,7.10
2018-09-23T00:43:41.263Z,8.50
2018-09-23T00:44:41.261Z,7.90
2018-09-23T00:45:41.257Z,7.40
2018-09-23T00:46:41.253Z,6.60
2018-09-23T00:47:41.249Z,7.50
2018-09-23T00:48:41.246Z,8.50
2018-09-23T00:49:41.247Z,8.10
2018-09-23T00:50:41.239Z,7.30
2018-09-23T00:51:41.237Z,9.00
2018-09-23T00:52:41.233Z,7.70
2018-09-23T00:53:41.229Z,7.70
2018-09-23T00:54:41.225Z,8.20
2018-09-23T00:55:41.224Z,7.10
2018-09-23T00:56:41.220Z,7.10
2018-09-23T00:57:41.219Z,8.50
2018-09-23T00:58:41.212Z,7.70
2018-09-23T00:59:41.208Z,7.50
2018-09-23T01:00:41.206Z,8.90
2018-09-23T01:01:41.204Z,8.70
2018-09-23T01:02:41.199Z,9.20
2018-09-23T01:03:41.194Z,8.80
2018-09-23T01:04:41.192Z,9.20
2018-09-23T01:05:41.190Z,8.50
2018-09-23T01:06:41.185Z,9.50
2018-09-23T01:07:41.181Z,8.80
2018-09-23T01:08:41.178Z,9.30
2018-09-23T01:09:41.174Z,10.00
2018-09-23T01:10:41.171Z,10.60
2018-09-23T01:11:41.167Z,10.10
2018-09-23T01:12:41.165Z,9.50
2018-09-23T01:13:41.164Z,9.30
2018-09-23T01:14:41.160Z,9.90
2018-09-23T01:15:41.155Z,10.00
2018-09-23T01:16:41.152Z,10.20
2018-09-23T01:17:41.147Z,10.70
2018-09-23T01:18:41.143Z,10.30
2018-09-23T01:19:41.141Z,10.90
2018-09-23T01:20:41.136Z,9.90
2018-09-23T01:21:41.138Z,9.20
2018-09-23T01:22:41.132Z,10.00
2018-09-23T01:23:41.126Z,9.70
2018-09-23T01:24:41.124Z,9.50
2018-09-23T01:25:41.123Z,10.50
2018-09-23T01:26:41.118Z,9.00
2018-09-23T01:27:41.125Z,10.40
2018-09-23T01:28:41.110Z,9.00
2018-09-23T01:29:41.108Z,8.70
2018-09-23T01:30:41.102Z,9.30
2018-09-23T01:31:41.100Z,8.60
2018-09-23T01:32:41.096Z,8.80
2018-09-23T01:33:41.093Z,9.30
2018-09-23T01:34:41.090Z,9.30
2018-09-23T01:35:41.088Z,9.80
2018-09-23T01:36:41.084Z,8.80
2018-09-23T01:37:41.080Z,8.80
2018-09-23T01:38:41.076Z,8.90
2018-09-23T01:39:41.071Z,8.60
2018-09-23T01:40:41.069Z,7.30
2018-09-23T01:41:41.065Z,7.60
2018-09-23T01:42:41.061Z,8.00
2018-09-23T01:43:41.059Z,7.80
2018-09-23T01:44:41.055Z,8.10
2018-09-23T01:45:41.051Z,9.00
2018-09-23T01:46:41.048Z,7.80
2018-09-23T01:47:41.045Z,8.40
2018-09-23T01:48:41.041Z,8.10
2018-09-23T01:49:41.039Z,7.20
2018-09-23T01:50:41.033Z,7.50
2018-09-23T01:51:41.030Z,8.20
2018-09-23T01:52:41.028Z,7.70
2018-09-23T01:53:41.025Z,8.70
2018-09-23T01:54:41.019Z,7.30
2018-09-23T01:55:41.017Z,8.80
2018-09-23T01:56:41.013Z,8.10
2018-09-23T01:57:41.010Z,8.50
2018-09-23T01:58:41.006Z,7.10
2018-09-23T01:59:41.004Z,8.20
2018-09-23T02:00:40.998Z,8.10
2018-09-23T02:01:40.996Z,7.90
2018-09-23T02:02:40.995Z,8.10
2018-09-23T02:03:40.990Z,7.20
2018-09-23T02:04:40.986Z,7.90
2018-09-23T02:05:40.984Z,7.10
2018-09-23T02:06:40.979Z,7.30
2018-09-23T02:07:40.976Z,7.30
2018-09-23T02:08:40.971Z,6.20
2018-09-23T02:09:40.969Z,7.30
2018-09-23T02:10:40.965Z,7.60
2018-09-23T02:11:40.961Z,7.30
2018-09-23T02:12:40.960Z,7.50
2018-09-23T02:13:40.955Z,7.30
2018-09-23T02:14:40.952Z,6.10
2018-09-23T02:15:40.948Z,8.10
2018-09-23T02:16:40.945Z,6.80
2018-09-23T02:17:40.941Z,7.70
2018-09-23T02:18:40.937Z,7.20
2018-09-23T02:19:40.935Z,7.60
2018-09-23T02:20:40.933Z,8.00
2018-09-23T02:21:40.927Z,6.30
2018-09-23T02:22:40.925Z,7.70
2018-09-23T02:23:40.921Z,6.80
2018-09-23T02:24:40.919Z,6.80
2018-09-23T02:25:40.915Z,7.70
2018-09-23T02:26:40.909Z,6.20
2018-09-23T02:27:40.915Z,7.90
2018-09-23T02:28:40.905Z,7.40
2018-09-23T02:29:40.900Z,7.30
2018-09-23T02:30:40.896Z,7.10
2018-09-23T02:31:40.893Z,7.90
2018-09-23T02:32:40.890Z,7.00
2018-09-23T02:33:40.887Z,7.60
2018-09-23T02:34:40.883Z,6.80
2018-09-23T02:35:40.878Z,7.20
2018-09-23T02:36:40.876Z,8.00
2018-09-23T02:37:40.871Z,6.00
2018-09-23T02:38:40.867Z,6.90
2018-09-23T02:39:40.867Z,7.10
2018-09-23T02:40:40.862Z,5.80
2018-09-23T02:41:40.859Z,6.90
2018-09-23T02:42:40.855Z,6.70
2018-09-23T02:43:40.851Z,6.90
2018-09-23T02:44:40.848Z,6.60
2018-09-23T02:45:40.845Z,6.80
2018-09-23T02:46:40.840Z,6.60
2018-09-23T02:47:40.836Z,5.90
2018-09-23T02:48:40.833Z,6.70
2018-09-23T02:49:40.830Z,5.80
2018-09-23T02:50:40.826Z,6.00
2018-09-23T02:51:40.821Z,6.60
2018-09-23T02:52:40.818Z,7.10
2018-09-23T02:53:40.815Z,6.00
2018-09-23T02:54:40.811Z,6.40
2018-09-23T02:55:40.807Z,6.40
2018-09-23T02:56:40.807Z,7.00
2018-09-23T02:57:40.801Z,4.80
2018-09-23T02:58:40.796Z,6.40
2018-09-23T02:59:40.792Z,5.30
2018-09-23T03:00:40.796Z,6.10
2018-09-23T03:01:40.787Z,6.40
2018-09-23T03:02:40.782Z,5.70
2018-09-23T03:03:40.778Z,6.80
2018-09-23T03:04:40.775Z,6.10
2018-09-23T03:05:40.772Z,6.60
2018-09-23T03:06:40.768Z,7.40
2018-09-23T03:07:40.768Z,6.90
2018-09-23T03:08:40.760Z,7.10
2018-09-23T03:09:40.757Z,6.00
2018-09-23T03:10:40.752Z,6.20
2018-09-23T03:11:40.749Z,6.20
2018-09-23T03:12:40.748Z,6.60
2018-09-23T03:13:40.743Z,6.40
2018-09-23T03:14:40.738Z,6.50
2018-09-23T03:15:40.734Z,6.90
2018-09-23T03:16:40.733Z,6.70
2018-09-23T03:17:40.730Z,6.10
2018-09-23T03:18:40.725Z,6.60
2018-09-23T03:19:40.723Z,6.20
2018-09-23T03:20:40.719Z,6.40
2018-09-23T03:21:40.715Z,6.00
2018-09-23T03:22:40.711Z,6.80
2018-09-23T03:23:40.707Z,6.50
2018-09-23T03:24:40.705Z,6.10
2018-09-23T03:25:40.701Z,6.60
2018-09-23T03:26:40.695Z,5.80
2018-09-23T03:27:40.692Z,6.40
2018-09-23T03:28:40.689Z,6.40
2018-09-23T03:29:40.689Z,6.90
2018-09-23T03:30:40.682Z,6.40
2018-09-23T03:31:40.677Z,6.80
2018-09-23T03:32:40.676Z,6.40
2018-09-23T03:33:40.671Z,6.90
2018-09-23T03:34:40.668Z,6.70
2018-09-23T03:35:40.664Z,6.30
2018-09-23T03:36:40.661Z,5.70
2018-09-23T03:37:40.658Z,5.70
2018-09-23T03:38:40.654Z,6.70
2018-09-23T03:39:40.649Z,6.20
2018-09-23T03:40:40.647Z,6.40
2018-09-23T03:41:40.643Z,6.50
2018-09-23T03:42:40.638Z,7.00
2018-09-23T03:43:40.636Z,6.20
2018-09-23T03:44:40.632Z,5.80
2018-09-23T03:45:40.630Z,6.40
2018-09-23T03:46:40.624Z,6.50
2018-09-23T03:47:40.621Z,6.10
2018-09-23T03:48:40.618Z,6.80
2018-09-23T03:49:40.616Z,5.60
2018-09-23T03:50:40.612Z,6.40
2018-09-23T03:51:40.608Z,6.50
2018-09-23T03:52:40.604Z,6.20
2018-09-23T03:53:40.601Z,6.20
2018-09-23T03:54:40.597Z,6.40
2018-09-23T03:55:40.594Z,6.80
2018-09-23T03:56:40.591Z,6.20
2018-09-23T03:57:40.588Z,6.40
2018-09-23T03:58:40.586Z,6.40
2018-09-23T03:59:40.580Z,6.80
2018-09-23T04:00:40.581Z,5.50
2018-09-23T04:01:40.574Z,7.90
2018-09-23T04:02:40.569Z,7.30
2018-09-23T04:03:40.567Z,6.50
2018-09-23T04:04:40.563Z,6.20
2018-09-23T04:05:40.559Z,6.00
2018-09-23T04:06:40.556Z,6.70
2018-09-23T04:07:40.551Z,6.30
2018-09-23T04:08:40.554Z,6.50
2018-09-23T04:09:40.554Z,5.70
2018-09-23T04:10:40.547Z,7.80
2018-09-23T04:11:40.538Z,5.70
2018-09-23T04:12:40.544Z,6.60
2018-09-23T04:13:40.532Z,7.00
2018-09-23T04:14:40.525Z,6.50
2018-09-23T04:15:40.523Z,6.10
2018-09-23T04:16:40.520Z,6.40
2018-09-23T04:17:40.517Z,6.20
2018-09-23T04:18:40.514Z,6.20
2018-09-23T04:19:40.510Z,6.20
2018-09-23T04:20:40.507Z,6.30
2018-09-23T04:21:40.503Z,6.40
2018-09-23T04:22:40.499Z,6.50
2018-09-23T04:23:40.493Z,6.70
2018-09-23T04:24:40.493Z,6.50
2018-09-23T04:25:40.487Z,5.90
2018-09-23T04:26:40.483Z,5.30
2018-09-23T04:27:40.481Z,6.40
2018-09-23T04:28:40.477Z,6.10
2018-09-23T04:29:40.477Z,6.80
2018-09-23T04:30:40.468Z,6.80
2018-09-23T04:31:40.466Z,6.70
2018-09-23T04:32:40.462Z,7.90
2018-09-23T04:33:40.460Z,5.80
2018-09-23T04:34:40.455Z,6.00
2018-09-23T04:35:40.451Z,6.10
2018-09-23T04:36:40.446Z,6.50
2018-09-23T04:37:40.443Z,5.80
2018-09-23T04:38:40.441Z,5.40
2018-09-23T04:39:40.437Z,6.20
2018-09-23T04:40:40.433Z,6.50
2018-09-23T04:41:40.429Z,6.10
2018-09-23T04:42:40.424Z,6.20
2018-09-23T04:43:40.421Z,5.40
2018-09-23T04:44:40.417Z,5.80
2018-09-23T04:45:40.414Z,5.60
2018-09-23T04:46:40.409Z,6.20
2018-09-23T04:47:40.405Z,6.90
2018-09-23T04:48:40.405Z,6.70
2018-09-23T04:49:40.402Z,7.10
2018-09-23T04:50:40.397Z,6.70
2018-09-23T04:51:40.391Z,7.00
2018-09-23T04:52:40.388Z,6.90
2018-09-23T04:53:40.385Z,6.50
2018-09-23T04:54:40.380Z,8.00
2018-09-23T04:55:40.377Z,6.60
2018-09-23T04:56:40.374Z,6.70
2018-09-23T04:57:40.369Z,6.40
2018-09-23T04:58:40.365Z,6.80
2018-09-23T04:59:40.361Z,7.80
2018-09-23T05:00:40.358Z,6.40
2018-09-23T05:01:40.355Z,8.30
2018-09-23T05:02:40.351Z,8.20
2018-09-23T05:03:40.346Z,7.50
2018-09-23T05:04:40.343Z,7.10
2018-09-23T05:05:40.340Z,7.40
2018-09-23T05:06:40.336Z,7.20
2018-09-23T05:07:40.335Z,7.00
2018-09-23T05:08:40.330Z,7.40
2018-09-23T05:09:40.325Z,7.00
2018-09-23T05:10:40.320Z,6.80
2018-09-23T05:11:40.322Z,5.80
2018-09-23T05:12:40.316Z,6.50
2018-09-23T05:13:40.311Z,5.90
2018-09-23T05:14:40.306Z,6.30
2018-09-23T05:15:40.302Z,7.30
2018-09-23T05:16:40.299Z,6.90
2018-09-23T05:17:40.297Z,6.10
2018-09-23T05:18:40.293Z,6.70
2018-09-23T05:19:40.289Z,6.40
2018-09-23T05:20:40.285Z,6.80
2018-09-23T05:21:40.283Z,6.00
2018-09-23T05:22:40.278Z,7.00
2018-09-23T05:23:40.274Z,6.70
2018-09-23T05:24:40.270Z,6.50
2018-09-23T05:25:40.266Z,6.60
2018-09-23T05:26:40.262Z,6.20
2018-09-23T05:27:40.260Z,6.10
2018-09-23T05:28:40.257Z,6.30
2018-09-23T05:29:40.252Z,6.60
2018-09-23T05:30:40.247Z,7.00
2018-09-23T05:31:40.247Z,7.90
2018-09-23T05:32:40.241Z,5.80
2018-09-23T05:33:40.237Z,6.90
2018-09-23T05:34:40.234Z,5.50
2018-09-23T05:35:40.233Z,5.50
2018-09-23T05:36:40.226Z,6.00
2018-09-23T05:37:40.223Z,5.60
2018-09-23T05:38:40.218Z,7.00
2018-09-23T05:39:40.215Z,6.20
2018-09-23T05:40:40.214Z,6.20
2018-09-23T05:41:40.209Z,6.10
2018-09-23T05:42:40.204Z,6.60
2018-09-23T05:43:40.202Z,6.00
2018-09-23T05:44:40.198Z,6.90
2018-09-23T05:45:40.194Z,7.60
2018-09-23T05:46:40.194Z,6.20
2018-09-23T05:47:40.187Z,6.50
2018-09-23T05:48:40.182Z,6.80
2018-09-23T05:49:40.184Z,6.50
2018-09-23T05:50:40.177Z,6.90
2018-09-23T05:51:40.173Z,6.60
2018-09-23T05:52:40.168Z,6.10
2018-09-23T05:53:40.166Z,7.10
2018-09-23T05:54:40.161Z,6.40
2018-09-23T05:55:40.158Z,7.00
2018-09-23T05:56:40.155Z,6.40
2018-09-23T05:57:40.150Z,6.60
2018-09-23T05:58:40.147Z,5.70
2018-09-23T05:59:40.142Z,6.00
2018-09-23T06:00:40.140Z,6.30
2018-09-23T06:01:40.136Z,6.50
2018-09-23T06:02:40.131Z,5.70
2018-09-23T06:03:40.128Z,6.00
2018-09-23T06:04:40.126Z,7.30
2018-09-23T06:05:40.122Z,5.30
2018-09-23T06:06:40.116Z,6.70
2018-09-23T06:07:40.113Z,6.80
2018-09-23T06:08:40.113Z,6.20
2018-09-23T06:09:40.107Z,6.40
2018-09-23T06:10:40.101Z,7.00
2018-09-23T06:11:40.098Z,6.60
2018-09-23T06:12:40.096Z,6.50
2018-09-23T06:13:40.091Z,4.80
2018-09-23T06:14:40.088Z,6.30
2018-09-23T06:15:40.083Z,6.60
2018-09-23T06:16:40.080Z,6.00
2018-09-23T06:17:40.077Z,6.10
2018-09-23T06:18:40.074Z,6.00
2018-09-23T06:19:40.069Z,6.60
2018-09-23T06:20:40.067Z,6.70
2018-09-23T06:21:40.062Z,6.00
2018-09-23T06:22:40.059Z,6.10
2018-09-23T06:23:40.056Z,6.40
2018-09-23T06:24:40.053Z,5.80
2018-09-23T06:25:40.048Z,6.60
2018-09-23T06:26:40.043Z,6.50
2018-09-23T06:27:40.042Z,6.90
2018-09-23T06:28:40.039Z,6.30
2018-09-23T06:29:40.035Z,5.40
2018-09-23T06:30:40.030Z,6.80
2018-09-23T06:31:40.027Z,6.00
2018-09-23T06:32:40.026Z,6.30
2018-09-23T06:33:40.022Z,6.40
2018-09-23T06:34:40.018Z,6.30
2018-09-23T06:35:40.013Z,6.80
2018-09-23T06:36:40.009Z,6.20
2018-09-23T06:37:40.006Z,6.80
2018-09-23T06:38:40.002Z,6.70
2018-09-23T06:39:40.004Z,7.40
2018-09-23T06:40:39.997Z,6.80
2018-09-23T06:41:39.993Z,6.40
2018-09-23T06:42:39.991Z,6.40
2018-09-23T06:43:39.986Z,6.30
2018-09-23T06:44:39.983Z,6.70
2018-09-23T06:45:39.990Z,6.10
2018-09-23T06:46:39.974Z,6.40
2018-09-23T06:47:39.971Z,6.10
2018-09-23T06:48:39.968Z,6.50
2018-09-23T06:49:39.968Z,7.00
2018-09-23T06:50:39.961Z,6.90
2018-09-23T06:51:39.956Z,6.50
2018-09-23T06:52:39.957Z,7.30
2018-09-23T06:53:39.952Z,7.70
2018-09-23T06:54:39.948Z,6.10
2018-09-23T06:55:39.945Z,6.50
2018-09-23T06:56:39.940Z,6.80
2018-09-23T06:57:39.938Z,7.00
2018-09-23T06:58:39.932Z,7.20
2018-09-23T06:59:39.931Z,6.40
2018-09-23T07:00:39.929Z,7.90
2018-09-23T07:01:39.924Z,7.50
2018-09-23T07:02:39.920Z,6.40
2018-09-23T07:03:39.919Z,6.90
2018-09-23T07:04:40.030Z,7.80
2018-09-23T07:05:39.911Z,7.20
2018-09-23T07:06:39.908Z,6.70
2018-09-23T07:07:39.905Z,7.80
2018-09-23T07:08:39.900Z,7.30
2018-09-23T07:09:39.898Z,7.50
2018-09-23T07:10:39.895Z,8.20
2018-09-23T07:11:39.890Z,8.60
2018-09-23T07:12:39.889Z,7.70
2018-09-23T07:13:39.885Z,8.20
2018-09-23T07:14:39.880Z,8.50
2018-09-23T07:15:39.878Z,8.80
2018-09-23T07:16:39.876Z,8.00
2018-09-23T07:17:39.873Z,8.50
2018-09-23T07:18:39.868Z,9.20
2018-09-23T07:19:39.865Z,7.80
2018-09-23T07:20:39.861Z,8.80
2018-09-23T07:21:39.860Z,8.40
2018-09-23T07:22:39.855Z,8.10
2018-09-23T07:23:39.917Z,8.80
2018-09-23T07:24:39.850Z,8.80
2018-09-23T07:25:39.847Z,8.90
2018-09-23T07:26:39.844Z,8.70
2018-09-23T07:27:39.840Z,8.10
2018-09-23T07:28:39.837Z,9.50
2018-09-23T07:29:39.836Z,9.60
2018-09-23T07:30:39.834Z,9.10
2018-09-23T07:31:39.827Z,8.40
2018-09-23T07:32:39.825Z,9.70
2018-09-23T07:33:39.823Z,9.20
2018-09-23T07:34:39.817Z,9.70
2018-09-23T07:35:39.815Z,9.20
2018-09-23T07:36:39.869Z,9.30
2018-09-23T07:37:39.811Z,8.40
2018-09-23T07:38:39.808Z,10.30
2018-09-23T07:39:39.879Z,8.50
2018-09-23T07:40:39.800Z,9.00
2018-09-23T07:41:39.798Z,8.50
2018-09-23T07:42:39.794Z,9.50
2018-09-23T07:43:39.793Z,7.80
2018-09-23T07:44:39.789Z,7.10
2018-09-23T07:45:39.787Z,8.20
2018-09-23T07:46:39.782Z,8.30
2018-09-23T07:47:39.780Z,8.30
2018-09-23T07:48:39.777Z,8.70
2018-09-23T07:49:39.774Z,8.30
2018-09-23T07:50:39.770Z,8.00
2018-09-23T07:51:39.768Z,7.90
2018-09-23T07:52:39.765Z,7.20
2018-09-23T07:53:39.762Z,7.70
2018-09-23T07:54:39.759Z,7.20
2018-09-23T07:55:39.757Z,7.30
2018-09-23T07:56:39.755Z,8.00
2018-09-23T07:57:39.751Z,7.40
2018-09-23T07:58:39.748Z,6.90
2018-09-23T07:59:39.744Z,7.90
2018-09-23T08:00:39.741Z,7.50
2018-09-23T08:01:39.740Z,7.10
2018-09-23T08:02:39.736Z,7.90
2018-09-23T08:03:39.733Z,6.80
2018-09-23T08:04:39.730Z,7.20
2018-09-23T08:05:39.730Z,7.40
2018-09-23T08:06:39.726Z,7.50
2018-09-23T08:07:39.722Z,7.70
2018-09-23T08:08:39.719Z,7.70
2018-09-23T08:09:39.718Z,7.50
2018-09-23T08:10:39.714Z,7.70
2018-09-23T08:11:39.713Z,8.30
2018-09-23T08:12:39.840Z,7.50
2018-09-23T08:13:39.933Z,7.00
2018-09-23T08:14:40.068Z,7.20
2018-09-23T08:15:39.701Z,7.10
2018-09-23T08:16:39.700Z,6.50
2018-09-23T08:17:39.697Z,7.10
2018-09-23T08:18:39.694Z,6.50
2018-09-23T08:19:39.847Z,7.10
2018-09-23T08:20:39.767Z,7.00
2018-09-23T08:21:39.688Z,6.80
2018-09-23T08:22:39.683Z,6.50
2018-09-23T08:23:39.681Z,8.70
2018-09-23T08:24:39.680Z,7.50
2018-09-23T08:25:39.723Z,7.30
2018-09-23T08:26:39.680Z,7.30
2018-09-23T08:27:39.672Z,7.50
2018-09-23T08:28:39.668Z,7.10
2018-09-23T08:29:39.667Z,7.10
2018-09-23T08:30:39.664Z,7.00
2018-09-23T08:31:39.661Z,8.30
2018-09-23T08:32:39.659Z,7.20
2018-09-23T08:33:39.658Z,6.90
2018-09-23T08:34:39.653Z,7.00
2018-09-23T08:35:39.652Z,6.70
2018-09-23T08:36:39.650Z,6.50
2018-09-23T08:37:39.647Z,6.90
2018-09-23T08:38:39.643Z,7.40
2018-09-23T08:39:39.642Z,7.10
2018-09-23T08:40:39.639Z,7.20
2018-09-23T08:41:39.637Z,7.60
2018-09-23T08:42:39.639Z,7.10
2018-09-23T08:43:39.631Z,6.70
2018-09-23T08:44:39.629Z,7.30
2018-09-23T08:45:39.630Z,6.50
2018-09-23T08:46:39.624Z,7.30
2018-09-23T08:47:39.623Z,7.00
2018-09-23T08:48:39.619Z,7.00
2018-09-23T08:49:39.617Z,7.50
2018-09-23T08:50:39.614Z,7.10
2018-09-23T08:51:39.657Z,7.40
2018-09-23T08:52:39.609Z,6.80
2018-09-23T08:53:39.608Z,7.30
2018-09-23T08:54:39.603Z,6.60
2018-09-23T08:55:39.604Z,7.20
2018-09-23T08:56:39.598Z,8.10
2018-09-23T08:57:39.647Z,7.50
2018-09-23T08:58:39.593Z,8.10
2018-09-23T08:59:39.594Z,8.20
2018-09-23T09:00:39.589Z,7.10
2018-09-23T09:01:39.587Z,7.70
2018-09-23T09:02:39.584Z,6.80
2018-09-23T09:03:39.637Z,8.50
2018-09-23T09:04:39.578Z,7.60
2018-09-23T09:05:39.576Z,7.60
2018-09-23T09:06:39.573Z,7.90
2018-09-23T09:07:39.570Z,7.60
2018-09-23T09:08:39.568Z,6.70
2018-09-23T09:09:39.565Z,6.70
2018-09-23T09:10:39.567Z,7.40
2018-09-23T09:11:39.615Z,6.90
2018-09-23T09:12:39.558Z,6.90
2018-09-23T09:13:39.555Z,6.20
2018-09-23T09:14:39.554Z,7.30
2018-09-23T09:15:39.550Z,8.30
2018-09-23T09:16:39.548Z,7.30
2018-09-23T09:17:39.547Z,7.80
2018-09-23T09:18:39.620Z,6.80
2018-09-23T09:19:39.541Z,7.80
2018-09-23T09:20:39.537Z,7.50
2018-09-23T09:21:39.537Z,6.80
2018-09-23T09:22:39.533Z,6.90
2018-09-23T09:23:39.531Z,7.20
2018-09-23T09:24:39.529Z,6.90
2018-09-23T09:25:39.528Z,7.00
2018-09-23T09:26:39.578Z,6.40
2018-09-23T09:27:39.522Z,7.90
2018-09-23T09:28:39.521Z,7.30
2018-09-23T09:29:39.517Z,6.40
2018-09-23T09:30:39.518Z,7.70
2018-09-23T09:31:39.515Z,7.60
2018-09-23T09:32:39.509Z,6.10
2018-09-23T09:33:39.508Z,6.80
2018-09-23T09:34:39.505Z,7.10
2018-09-23T09:35:39.502Z,6.80
2018-09-23T09:36:39.500Z,7.10
2018-09-23T09:37:39.498Z,7.00
2018-09-23T09:38:39.496Z,6.40
2018-09-23T09:39:39.492Z,6.50
2018-09-23T09:40:39.490Z,6.60
2018-09-23T09:41:39.489Z,6.60
2018-09-23T09:42:39.485Z,6.30
2018-09-23T09:43:39.482Z,6.40
2018-09-23T09:44:39.481Z,7.10
2018-09-23T09:45:39.479Z,6.00
2018-09-23T09:46:39.476Z,6.40
2018-09-23T09:47:39.477Z,6.60
2018-09-23T09:48:39.471Z,7.10
2018-09-23T09:49:39.469Z,7.30
2018-09-23T09:50:39.468Z,6.80
2018-09-23T09:51:39.463Z,7.00
2018-09-23T09:52:39.465Z,6.00
2018-09-23T09:53:39.459Z,6.40
2018-09-23T09:54:39.459Z,5.50
2018-09-23T09:55:39.458Z,6.20
2018-09-23T09:56:39.452Z,6.50
2018-09-23T09:57:39.449Z,6.50
2018-09-23T09:58:39.446Z,6.30
2018-09-23T09:59:39.449Z,6.10
2018-09-23T10:00:39.443Z,5.60
2018-09-23T10:01:39.441Z,6.00
2018-09-23T10:02:39.437Z,6.50
2018-09-23T10:03:39.476Z,5.40
2018-09-23T10:04:39.435Z,6.50
2018-09-23T10:05:39.431Z,5.90
2018-09-23T10:06:39.427Z,6.80
2018-09-23T10:07:39.424Z,5.90
2018-09-23T10:08:39.425Z,6.80
2018-09-23T10:09:39.421Z,6.30
2018-09-23T10:10:39.418Z,6.40
2018-09-23T10:11:39.482Z,5.40
2018-09-23T10:12:39.412Z,6.10
2018-09-23T10:13:39.412Z,6.10
2018-09-23T10:14:39.408Z,6.50
2018-09-23T10:15:39.404Z,6.30
2018-09-23T10:16:39.402Z,6.10
2018-09-23T10:17:39.400Z,6.10
2018-09-23T10:18:39.396Z,5.50
2018-09-23T10:19:39.396Z,6.10
2018-09-23T10:20:39.391Z,5.70
2018-09-23T10:21:39.389Z,6.30
2018-09-23T10:22:39.445Z,5.80
2018-09-23T10:23:39.586Z,5.70
2018-09-23T10:24:39.381Z,6.00
2018-09-23T10:25:39.378Z,5.90
2018-09-23T10:26:39.381Z,6.00
2018-09-23T10:27:39.372Z,6.30
2018-09-23T10:28:39.371Z,6.10
2018-09-23T10:29:39.369Z,5.30
2018-09-23T10:30:39.363Z,6.40
2018-09-23T10:31:39.367Z,6.50
2018-09-23T10:32:39.359Z,7.00
2018-09-23T10:33:39.357Z,6.60
2018-09-23T10:34:39.354Z,5.10
2018-09-23T10:35:39.352Z,6.10
2018-09-23T10:36:39.354Z,6.40
2018-09-23T10:37:39.345Z,5.20
2018-09-23T10:38:39.343Z,5.30
2018-09-23T10:39:39.340Z,5.40
2018-09-23T10:40:39.337Z,5.00
2018-09-23T10:41:39.334Z,4.90
2018-09-23T10:42:39.336Z,5.50
2018-09-23T10:43:39.329Z,4.50
2018-09-23T10:44:39.325Z,5.20
2018-09-23T10:45:39.322Z,4.90
2018-09-23T10:46:39.321Z,5.00
2018-09-23T10:47:39.319Z,5.40
2018-09-23T10:48:39.314Z,5.40
2018-09-23T10:49:39.314Z,4.80
2018-09-23T10:50:39.307Z,5.40
2018-09-23T10:51:39.305Z,5.00
2018-09-23T10:52:39.303Z,4.40
2018-09-23T10:53:39.299Z,5.10
2018-09-23T10:54:39.295Z,5.50
2018-09-23T10:55:39.300Z,4.30
2018-09-23T10:56:39.289Z,5.20
2018-09-23T10:57:39.286Z,4.40
2018-09-23T10:58:39.282Z,4.60
2018-09-23T10:59:39.280Z,4.70
2018-09-23T11:00:39.278Z,4.80
2018-09-23T11:01:39.275Z,4.80
2018-09-23T11:02:39.270Z,5.50
2018-09-23T11:03:39.278Z,5.20
2018-09-23T11:04:39.264Z,5.00
2018-09-23T11:05:39.266Z,5.00
2018-09-23T11:06:39.258Z,5.10
2018-09-23T11:07:39.256Z,5.10
2018-09-23T11:08:39.253Z,5.00
2018-09-23T11:09:39.254Z,5.10
2018-09-23T11:10:39.246Z,4.80
2018-09-23T11:11:39.244Z,5.20
2018-09-23T11:12:39.239Z,5.70
2018-09-23T11:13:39.237Z,5.10
2018-09-23T11:14:39.233Z,4.80
2018-09-23T11:15:39.231Z,5.50
2018-09-23T11:16:39.227Z,5.60
2018-09-23T11:17:39.224Z,6.10
2018-09-23T11:18:39.219Z,5.30
2018-09-23T11:19:39.217Z,4.50
2018-09-23T11:20:39.214Z,6.10
2018-09-23T11:21:39.211Z,5.80
2018-09-23T11:22:39.205Z,5.40
2018-09-23T11:23:39.204Z,5.10
2018-09-23T11:24:39.216Z,6.10
2018-09-23T11:25:39.198Z,6.10
2018-09-23T11:26:39.193Z,5.40
2018-09-23T11:27:39.191Z,6.20
2018-09-23T11:28:39.187Z,5.80
2018-09-23T11:29:39.186Z,6.00
2018-09-23T11:30:39.242Z,5.70
2018-09-23T11:31:39.178Z,6.70
2018-09-23T11:32:39.174Z,6.20
2018-09-23T11:33:39.170Z,7.00
2018-09-23T11:34:39.167Z,5.60
2018-09-23T11:35:39.164Z,5.80
2018-09-23T11:36:39.162Z,5.90
2018-09-23T11:37:39.162Z,5.90
2018-09-23T11:38:39.154Z,4.80
2018-09-23T11:39:39.150Z,6.10
2018-09-23T11:40:39.150Z,6.50
2018-09-23T11:41:39.146Z,6.90
2018-09-23T11:42:39.141Z,5.10
2018-09-23T11:43:39.139Z,6.20
2018-09-23T11:44:39.135Z,5.60
2018-09-23T11:45:39.133Z,5.00
2018-09-23T11:46:39.129Z,5.30
2018-09-23T11:47:39.129Z,6.10
2018-09-23T11:48:39.124Z,6.00
2018-09-23T11:49:39.120Z,5.60
2018-09-23T11:50:39.114Z,6.70
2018-09-23T11:51:39.113Z,5.60
2018-09-23T11:52:39.109Z,5.00
2018-09-23T11:53:39.107Z,6.70
2018-09-23T11:54:39.102Z,6.10
2018-09-23T11:55:39.100Z,5.80
2018-09-23T11:56:39.096Z,5.90
2018-09-23T11:57:39.093Z,5.50
2018-09-23T11:58:39.088Z,5.70
2018-09-23T11:59:39.086Z,5.70
2018-09-23T12:00:39.083Z,5.80
2018-09-23T12:01:39.080Z,5.70
2018-09-23T12:02:39.076Z,6.10
2018-09-23T12:03:39.075Z,6.10
2018-09-23T12:04:39.069Z,6.50
2018-09-23T12:05:39.069Z,6.20
2018-09-23T12:06:39.061Z,6.50
2018-09-23T12:07:39.057Z,7.50
2018-09-23T12:08:39.054Z,6.70
2018-09-23T12:09:39.050Z,7.20
2018-09-23T12:10:39.050Z,7.00
2018-09-23T12:11:39.044Z,6.80
2018-09-23T12:12:39.040Z,6.10
2018-09-23T12:13:39.037Z,6.40
2018-09-23T12:14:39.084Z,6.00
2018-09-23T12:15:39.041Z,6.50
2018-09-23T12:16:39.028Z,6.40
2018-09-23T12:17:39.021Z,7.20
2018-09-23T12:18:39.016Z,5.70
2018-09-23T12:19:39.016Z,5.90
2018-09-23T12:20:39.012Z,5.20
2018-09-23T12:21:39.007Z,6.60
2018-09-23T12:22:39.002Z,6.90
2018-09-23T12:23:38.998Z,7.10
2018-09-23T12:24:38.994Z,6.50
2018-09-23T12:25:39.070Z,6.70
2018-09-23T12:26:38.988Z,7.10
2018-09-23T12:27:38.984Z,6.70
2018-09-23T12:28:38.979Z,7.10
2018-09-23T12:29:39.047Z,6.80
2018-09-23T12:30:38.973Z,5.70
2018-09-23T12:31:38.968Z,6.50
2018-09-23T12:32:38.968Z,5.10
2018-09-23T12:33:38.961Z,5.40
2018-09-23T12:34:38.956Z,6.20
2018-09-23T12:35:38.953Z,4.70
2018-09-23T12:36:38.949Z,4.30
2018-09-23T12:37:38.946Z,5.70
2018-09-23T12:38:38.942Z,5.30
2018-09-23T12:39:38.938Z,5.60
2018-09-23T12:40:38.933Z,6.50
2018-09-23T12:41:38.930Z,5.00
2018-09-23T12:42:38.926Z,6.20
2018-09-23T12:43:38.925Z,4.70
2018-09-23T12:44:38.919Z,4.70
2018-09-23T12:45:38.915Z,5.10
2018-09-23T12:46:38.911Z,6.20
2018-09-23T12:47:38.906Z,5.00
2018-09-23T12:48:38.904Z,5.00
2018-09-23T12:49:38.899Z,4.50
2018-09-23T12:50:38.894Z,4.90
2018-09-23T12:51:38.891Z,5.30
2018-09-23T12:52:38.887Z,4.80
2018-09-23T12:53:38.883Z,5.10
2018-09-23T12:54:38.879Z,4.90
2018-09-23T12:55:38.875Z,5.40
2018-09-23T12:56:38.873Z,4.60
2018-09-23T12:57:38.867Z,5.50
2018-09-23T12:58:38.863Z,5.60
2018-09-23T12:59:38.860Z,5.70
2018-09-23T13:00:38.855Z,5.60
2018-09-23T13:01:38.855Z,5.80
2018-09-23T13:02:38.879Z,6.50
2018-09-23T13:03:38.844Z,5.80
2018-09-23T13:04:38.840Z,5.70
2018-09-23T13:05:38.836Z,5.70
2018-09-23T13:06:38.841Z,6.60
2018-09-23T13:07:38.826Z,5.70
2018-09-23T13:08:38.822Z,6.50
2018-09-23T13:09:38.820Z,5.90
2018-09-23T13:10:38.817Z,6.30
2018-09-23T13:11:38.811Z,6.00
2018-09-23T13:12:38.809Z,6.60
2018-09-23T13:13:38.804Z,6.30
2018-09-23T13:14:38.797Z,6.50
2018-09-23T13:15:38.794Z,5.80
2018-09-23T13:16:38.792Z,7.50
2018-09-23T13:17:38.788Z,6.80